createdAt,value
2023-02-03T00:00:55.585Z,6.900
2023-02-03T00:01:55.368Z,6.100
2023-02-03T00:02:55.335Z,6.400
2023-02-03T00:03:55.239Z,6.400
2023-02-03T00:04:55.068Z,6.400
2023-02-03T00:05:55.905Z,6.700
2023-02-03T00:06:55.569Z,5.700
2023-02-03T00:07:55.500Z,6.100
2023-02-03T00:08:55.166Z,6.300
2023-02-03T00:09:56.082Z,6.300
2023-02-03T00:10:55.984Z,6.100
2023-02-03T00:11:55.763Z,6.300
2023-02-03T00:12:55.593Z,6.500
2023-02-03T00:13:55.408Z,6.400
2023-02-03T00:14:55.083Z,6.100
2023-02-03T00:15:55.928Z,6.400
2023-02-03T00:16:55.780Z,6.100
2023-02-03T00:17:55.412Z,6.700
2023-02-03T00:18:55.115Z,6.500
2023-02-03T00:19:55.775Z,7.000
2023-02-03T00:20:55.787Z,6.900
2023-02-03T00:21:55.784Z,6.100
2023-02-03T00:22:55.480Z,7.000
2023-02-03T00:23:55.464Z,6.700
2023-02-03T00:24:55.337Z,6.700
2023-02-03T00:25:55.236Z,6.100
2023-02-03T00:26:55.019Z,6.300
2023-02-03T00:27:55.995Z,5.900
2023-02-03T00:28:55.627Z,6.500
2023-02-03T00:29:55.491Z,6.500
2023-02-03T00:30:55.199Z,6.500
2023-02-03T00:31:55.213Z,6.600
2023-02-03T00:32:55.644Z,6.900
2023-02-03T00:33:55.449Z,6.500
2023-02-03T00:34:55.429Z,6.200
2023-02-03T00:35:55.159Z,6.300
2023-02-03T00:36:59.255Z,7.500
2023-02-03T00:37:55.423Z,6.400
2023-02-03T00:38:55.220Z,6.500
2023-02-03T00:39:54.883Z,7.100
2023-02-03T00:40:55.777Z,6.400
2023-02-03T00:41:55.650Z,7.000
2023-02-03T00:42:55.642Z,6.900
2023-02-03T00:43:55.306Z,7.100
2023-02-03T00:44:55.132Z,7.200
2023-02-03T00:45:55.298Z,7.000
2023-02-03T00:46:55.244Z,6.900
2023-02-03T00:47:55.773Z,6.400
2023-02-03T00:48:55.628Z,6.600
2023-02-03T00:49:55.408Z,6.900
2023-02-03T00:50:55.279Z,7.000
2023-02-03T00:51:55.188Z,7.200
2023-02-03T00:52:55.927Z,7.100
2023-02-03T00:53:55.725Z,7.500
2023-02-03T00:54:56.876Z,7.500
2023-02-03T00:55:57.199Z,7.400
2023-02-03T00:56:55.690Z,6.800
2023-02-03T00:57:56.344Z,6.800
2023-02-03T00:58:55.101Z,7.300
2023-02-03T00:59:55.815Z,7.000
2023-02-03T01:00:55.757Z,7.100
2023-02-03T01:01:56.679Z,6.600
2023-02-03T01:02:56.056Z,6.800
2023-02-03T01:03:56.070Z,6.900
2023-02-03T01:04:55.909Z,6.800
2023-02-03T01:05:55.775Z,6.600
2023-02-03T01:06:55.827Z,7.100
2023-02-03T01:07:55.586Z,7.500
2023-02-03T01:08:55.610Z,7.400
2023-02-03T01:09:55.579Z,7.000
2023-02-03T01:10:55.552Z,8.100
2023-02-03T01:11:55.326Z,7.600
2023-02-03T01:12:55.148Z,7.700
2023-02-03T01:13:56.247Z,7.600
2023-02-03T01:14:55.036Z,8.200
2023-02-03T01:15:56.464Z,7.800
2023-02-03T01:16:55.670Z,7.400
2023-02-03T01:17:55.768Z,8.300
2023-02-03T01:18:55.671Z,8.300
2023-02-03T01:19:55.791Z,8.600
2023-02-03T01:20:55.783Z,9.000
2023-02-03T01:21:55.729Z,8.400
2023-02-03T01:22:55.416Z,9.000
2023-02-03T01:23:55.240Z,8.000
2023-02-03T01:24:55.001Z,8.500
2023-02-03T01:25:55.688Z,8.100
2023-02-03T01:26:55.544Z,8.900
2023-02-03T01:27:55.496Z,8.100
2023-02-03T01:28:55.290Z,8.800
2023-02-03T01:29:55.035Z,8.800
2023-02-03T01:30:56.006Z,8.500
2023-02-03T01:31:55.744Z,9.300
2023-02-03T01:32:55.675Z,8.700
2023-02-03T01:33:55.759Z,9.200
2023-02-03T01:34:55.934Z,8.700
2023-02-03T01:35:55.913Z,8.800
2023-02-03T01:36:55.644Z,9.300
2023-02-03T01:37:55.452Z,9.200
2023-02-03T01:38:55.232Z,8.900
2023-02-03T01:39:55.039Z,8.700
2023-02-03T01:40:55.963Z,8.900
2023-02-03T01:41:55.897Z,10.000
2023-02-03T01:42:55.602Z,8.900
2023-02-03T01:43:55.765Z,8.600
2023-02-03T01:44:55.653Z,9.000
2023-02-03T01:45:55.575Z,9.600
2023-02-03T01:46:55.536Z,8.900
2023-02-03T01:47:55.360Z,9.500
2023-02-03T01:48:55.280Z,9.100
2023-02-03T01:49:55.159Z,9.500
2023-02-03T01:50:56.051Z,9.400
2023-02-03T01:51:56.696Z,10.100
2023-02-03T01:52:55.571Z,9.700
2023-02-03T01:53:55.424Z,8.700
2023-02-03T01:54:55.233Z,10.100
2023-02-03T01:55:55.093Z,9.300
2023-02-03T01:56:55.779Z,9.300
2023-02-03T01:58:55.524Z,8.600
2023-02-03T01:59:56.115Z,9.200
2023-02-03T02:00:56.354Z,9.800
2023-02-03T02:01:55.299Z,9.100
2023-02-03T02:02:55.469Z,9.400
2023-02-03T02:03:55.286Z,9.500
2023-02-03T02:04:55.102Z,9.500
2023-02-03T02:05:55.902Z,9.800
2023-02-03T02:06:55.769Z,9.100
2023-02-03T02:07:55.679Z,9.900
2023-02-03T02:08:55.624Z,9.000
2023-02-03T02:09:55.400Z,10.000
2023-02-03T02:10:55.269Z,9.700
2023-02-03T02:11:54.983Z,10.200
2023-02-03T02:12:55.745Z,9.900
2023-02-03T02:13:55.441Z,9.500
2023-02-03T02:14:55.245Z,9.600
2023-02-03T02:15:55.478Z,9.300
2023-02-03T02:16:55.916Z,10.600
2023-02-03T02:17:55.881Z,9.800
2023-02-03T02:18:55.796Z,9.600
2023-02-03T02:19:56.092Z,10.100
2023-02-03T02:20:55.377Z,10.000
2023-02-03T02:21:55.381Z,9.800
2023-02-03T02:22:55.564Z,9.400
2023-02-03T02:23:55.535Z,8.900
2023-02-03T02:24:55.710Z,10.100
2023-02-03T02:25:55.700Z,10.400
2023-02-03T02:26:55.967Z,10.000
2023-02-03T02:27:56.099Z,10.500
2023-02-03T02:28:55.571Z,9.700
2023-02-03T02:29:55.961Z,9.900
2023-02-03T02:30:56.302Z,10.400
2023-02-03T02:31:56.051Z,10.100
2023-02-03T02:32:55.068Z,9.300
2023-02-03T02:33:55.801Z,10.200
2023-02-03T02:34:55.789Z,10.800
2023-02-03T02:35:55.819Z,11.000
2023-02-03T02:36:55.834Z,10.000
2023-02-03T02:37:55.675Z,10.400
2023-02-03T02:38:55.441Z,10.800
2023-02-03T02:39:55.225Z,10.900
2023-02-03T02:40:55.204Z,10.400
2023-02-03T02:41:54.956Z,9.800
2023-02-03T02:42:55.751Z,10.500
2023-02-03T02:43:55.616Z,10.100
2023-02-03T02:44:55.661Z,10.300
2023-02-03T02:45:55.621Z,10.200
2023-02-03T02:46:55.819Z,9.900
2023-02-03T02:47:55.672Z,10.300
2023-02-03T02:48:55.572Z,10.100
2023-02-03T02:49:55.781Z,10.100
2023-02-03T02:50:55.684Z,9.900
2023-02-03T02:51:55.748Z,10.400
2023-02-03T02:52:56.716Z,9.800
2023-02-03T02:53:55.793Z,10.200
2023-02-03T02:54:55.744Z,10.200
2023-02-03T02:55:55.867Z,10.100
2023-02-03T02:56:55.819Z,10.400
2023-02-03T02:57:55.689Z,9.700
2023-02-03T02:58:55.560Z,10.300
2023-02-03T02:59:55.631Z,10.000
2023-02-03T03:00:55.880Z,10.200
2023-02-03T03:01:56.301Z,9.800
2023-02-03T03:02:55.576Z,10.200
2023-02-03T03:03:55.919Z,9.900
2023-02-03T03:04:56.011Z,10.500
2023-02-03T03:05:55.224Z,10.000
2023-02-03T03:06:55.301Z,10.300
2023-02-03T03:07:55.216Z,10.500
2023-02-03T03:08:55.159Z,10.200
2023-02-03T03:09:55.240Z,9.400
2023-02-03T03:10:55.397Z,9.400
2023-02-03T03:11:55.635Z,9.300
2023-02-03T03:12:55.668Z,9.800
2023-02-03T03:13:55.709Z,9.600
2023-02-03T03:14:55.609Z,10.000
2023-02-03T03:15:55.713Z,9.400
2023-02-03T03:16:56.096Z,9.900
2023-02-03T03:17:56.376Z,8.700
2023-02-03T03:18:55.388Z,9.200
2023-02-03T03:19:55.388Z,9.200
2023-02-03T03:20:55.481Z,9.700
2023-02-03T03:21:55.596Z,10.000
2023-02-03T03:22:55.373Z,9.100
2023-02-03T03:23:55.335Z,9.400
2023-02-03T03:24:55.184Z,8.900
2023-02-03T03:25:55.110Z,8.800
2023-02-03T03:26:55.083Z,9.000
2023-02-03T03:27:56.012Z,9.000
2023-02-03T03:28:55.031Z,8.900
2023-02-03T03:29:56.050Z,8.700
2023-02-03T03:30:56.135Z,8.700
2023-02-03T03:31:55.623Z,8.400
2023-02-03T03:32:55.679Z,8.400
2023-02-03T03:33:55.391Z,8.100
2023-02-03T03:34:55.392Z,8.800
2023-02-03T03:35:55.380Z,7.900
2023-02-03T03:36:55.232Z,8.100
2023-02-03T03:37:55.027Z,8.100
2023-02-03T03:38:55.996Z,8.000
2023-02-03T03:39:55.840Z,7.800
2023-02-03T03:40:55.931Z,8.300
2023-02-03T03:41:55.923Z,8.300
2023-02-03T03:42:55.995Z,7.800
2023-02-03T03:43:56.017Z,8.300
2023-02-03T03:44:56.097Z,8.500
2023-02-03T03:45:56.091Z,8.000
2023-02-03T03:46:56.055Z,8.000
2023-02-03T03:47:56.167Z,8.600
2023-02-03T03:48:55.146Z,8.000
2023-02-03T03:49:56.046Z,7.900
2023-02-03T03:50:56.039Z,8.500
2023-02-03T03:51:55.860Z,7.400
2023-02-03T03:52:55.723Z,8.100
2023-02-03T03:53:55.919Z,7.300
2023-02-03T03:54:55.609Z,7.600
2023-02-03T03:55:55.483Z,7.600
2023-02-03T03:56:55.321Z,7.600
2023-02-03T03:57:55.267Z,7.500
2023-02-03T03:58:55.907Z,7.800
2023-02-03T03:59:55.888Z,7.100
2023-02-03T04:00:55.743Z,8.100
2023-02-03T04:01:56.422Z,7.200
2023-02-03T04:02:56.095Z,7.600
2023-02-03T04:03:55.670Z,6.900
2023-02-03T04:04:55.511Z,7.300
2023-02-03T04:05:55.334Z,7.400
2023-02-03T04:06:55.371Z,7.500
2023-02-03T04:07:55.074Z,6.900
2023-02-03T04:08:55.869Z,7.200
2023-02-03T04:09:55.848Z,6.900
2023-02-03T04:10:55.843Z,7.500
2023-02-03T04:11:55.702Z,7.200
2023-02-03T04:12:55.588Z,6.800
2023-02-03T04:13:55.493Z,6.800
2023-02-03T04:14:55.492Z,6.800
2023-02-03T04:15:56.282Z,6.700
2023-02-03T04:17:02.651Z,7.700
2023-02-03T04:18:02.101Z,6.900
2023-02-03T04:18:58.180Z,6.800
2023-02-03T04:19:55.126Z,6.900
2023-02-03T04:20:56.179Z,7.100
2023-02-03T04:21:55.154Z,6.800
2023-02-03T04:22:56.118Z,6.900
2023-02-03T04:23:55.212Z,6.900
2023-02-03T04:24:55.035Z,6.500
2023-02-03T04:25:56.175Z,7.000
2023-02-03T04:27:55.181Z,7.200
2023-02-03T04:28:55.130Z,6.600
2023-02-03T04:29:55.021Z,6.900
2023-02-03T04:30:55.253Z,6.700
2023-02-03T04:31:55.397Z,7.100
2023-02-03T04:32:55.429Z,7.000
2023-02-03T04:33:55.351Z,6.700
2023-02-03T04:34:55.256Z,7.200
2023-02-03T04:35:55.367Z,6.400
2023-02-03T04:36:55.137Z,6.400
2023-02-03T04:37:56.217Z,6.700
2023-02-03T04:38:55.426Z,6.600
2023-02-03T04:39:55.331Z,7.000
2023-02-03T04:40:55.380Z,6.800
2023-02-03T04:41:55.279Z,5.900
2023-02-03T04:42:55.194Z,6.100
2023-02-03T04:43:55.208Z,6.200
2023-02-03T04:44:55.099Z,6.400
2023-02-03T04:45:56.415Z,6.500
2023-02-03T04:46:55.576Z,6.700
2023-02-03T04:47:55.464Z,6.700
2023-02-03T04:48:55.260Z,6.200
2023-02-03T04:49:55.247Z,7.400
2023-02-03T04:50:55.357Z,6.800
2023-02-03T04:51:55.362Z,5.700
2023-02-03T04:52:55.335Z,6.900
2023-02-03T04:53:55.301Z,5.700
2023-02-03T04:54:55.181Z,5.700
2023-02-03T04:55:56.079Z,6.400
2023-02-03T04:56:56.116Z,5.900
2023-02-03T04:57:55.979Z,6.400
2023-02-03T04:58:56.011Z,6.200
2023-02-03T04:59:55.939Z,6.500
2023-02-03T05:00:56.058Z,6.100
2023-02-03T05:01:55.048Z,6.000
2023-02-03T05:02:56.074Z,5.600
2023-02-03T05:03:56.224Z,5.600
2023-02-03T05:04:54.953Z,5.400
2023-02-03T05:05:55.827Z,6.200
2023-02-03T05:06:55.771Z,6.000
2023-02-03T05:07:55.716Z,5.400
2023-02-03T05:08:55.868Z,5.500
2023-02-03T05:09:55.768Z,5.700
2023-02-03T05:10:55.644Z,6.300
2023-02-03T05:11:55.516Z,5.600
2023-02-03T05:12:55.307Z,5.200
2023-02-03T05:13:55.176Z,5.300
2023-02-03T05:14:55.175Z,5.300
2023-02-03T05:15:55.073Z,4.900
2023-02-03T05:16:56.289Z,5.100
2023-02-03T05:17:55.112Z,5.000
2023-02-03T05:18:55.883Z,4.700
2023-02-03T05:19:55.677Z,4.400
2023-02-03T05:20:55.556Z,4.300
2023-02-03T05:21:55.443Z,4.300
2023-02-03T05:22:55.204Z,4.100
2023-02-03T05:23:55.034Z,4.300
2023-02-03T05:24:55.847Z,4.500
2023-02-03T05:25:55.960Z,4.100
2023-02-03T05:26:56.091Z,4.700
2023-02-03T05:27:55.985Z,4.400
2023-02-03T05:28:57.799Z,4.200
2023-02-03T05:29:55.823Z,4.000
2023-02-03T05:30:55.964Z,4.200
2023-02-03T05:31:56.205Z,4.000
2023-02-03T05:32:55.248Z,4.300
2023-02-03T05:33:55.039Z,3.500
2023-02-03T05:34:58.451Z,3.300
2023-02-03T05:35:55.483Z,4.100
2023-02-03T05:36:55.497Z,4.200
2023-02-03T05:37:55.415Z,3.800
2023-02-03T05:38:55.308Z,3.700
2023-02-03T05:39:55.348Z,4.600
2023-02-03T05:40:55.213Z,3.800
2023-02-03T05:41:57.293Z,4.300
2023-02-03T05:42:54.917Z,3.900
2023-02-03T05:43:55.795Z,3.700
2023-02-03T05:44:55.595Z,3.500
2023-02-03T05:45:55.650Z,3.800
2023-02-03T05:46:55.524Z,3.700
2023-02-03T05:47:55.234Z,3.800
2023-02-03T05:48:54.917Z,3.300
2023-02-03T05:49:55.991Z,3.700
2023-02-03T05:50:55.827Z,3.600
2023-02-03T05:51:55.656Z,4.200
2023-02-03T05:52:55.427Z,3.800
2023-02-03T05:53:55.438Z,3.400
2023-02-03T05:54:55.539Z,3.500
2023-02-03T05:55:55.332Z,3.400
2023-02-03T05:56:55.052Z,3.600
2023-02-03T05:57:55.891Z,3.400
2023-02-03T05:58:55.720Z,3.400
2023-02-03T05:59:55.548Z,3.600
2023-02-03T06:00:55.650Z,3.400
2023-02-03T06:01:55.572Z,3.100
2023-02-03T06:02:55.620Z,3.300
2023-02-03T06:03:57.307Z,3.500
2023-02-03T06:05:55.397Z,3.400
2023-02-03T06:06:55.627Z,3.200
2023-02-03T06:07:55.972Z,3.100
2023-02-03T06:08:56.148Z,3.100
2023-02-03T06:09:55.317Z,2.800
2023-02-03T06:10:55.577Z,3.400
2023-02-03T06:11:55.743Z,2.800
2023-02-03T06:12:55.863Z,2.900
2023-02-03T06:13:56.088Z,2.700
2023-02-03T06:14:55.139Z,3.000
2023-02-03T06:15:55.221Z,3.000
2023-02-03T06:16:55.477Z,2.900
2023-02-03T06:17:55.550Z,2.900
2023-02-03T06:18:55.850Z,2.900
2023-02-03T06:19:55.775Z,2.700
2023-02-03T06:20:55.805Z,2.700
2023-02-03T06:21:55.839Z,3.100
2023-02-03T06:22:55.850Z,2.700
2023-02-03T06:23:55.888Z,2.700
2023-02-03T06:24:55.837Z,2.700
2023-02-03T06:25:55.794Z,2.600
2023-02-03T06:26:55.743Z,2.500
2023-02-03T06:27:55.967Z,2.600
2023-02-03T06:28:55.085Z,2.200
2023-02-03T06:29:55.986Z,2.400
2023-02-03T06:30:56.300Z,2.300
2023-02-03T06:31:55.825Z,2.200
2023-02-03T06:32:55.803Z,2.400
2023-02-03T06:33:55.928Z,2.100
2023-02-03T06:34:56.056Z,1.800
2023-02-03T06:35:56.071Z,2.200
2023-02-03T06:36:56.243Z,2.300
2023-02-03T06:37:55.703Z,2.200
2023-02-03T06:38:55.844Z,2.100
2023-02-03T06:39:56.008Z,2.200
2023-02-03T06:40:56.283Z,2.100
2023-02-03T06:41:55.368Z,2.300
2023-02-03T06:42:55.463Z,2.200
2023-02-03T06:43:55.575Z,2.200
2023-02-03T06:44:55.640Z,2.200
2023-02-03T06:45:55.847Z,1.900
2023-02-03T06:46:55.872Z,2.200
2023-02-03T06:47:55.839Z,2.200
2023-02-03T06:48:55.773Z,2.100
2023-02-03T06:49:55.662Z,2.500
2023-02-03T06:50:55.840Z,2.500
2023-02-03T06:51:56.024Z,2.300
2023-02-03T06:52:56.120Z,2.600
2023-02-03T06:54:56.735Z,2.700
2023-02-03T06:55:55.622Z,2.400
2023-02-03T06:56:55.719Z,2.700
2023-02-03T06:57:55.561Z,2.500
2023-02-03T06:58:55.319Z,2.700
2023-02-03T06:59:55.279Z,2.300
2023-02-03T07:00:55.200Z,2.300
2023-02-03T07:01:55.149Z,2.800
2023-02-03T07:02:55.122Z,2.500
2023-02-03T07:03:55.183Z,2.600
2023-02-03T07:04:55.880Z,3.100
2023-02-03T07:05:55.759Z,2.700
2023-02-03T07:06:55.419Z,3.000
2023-02-03T07:07:55.306Z,3.100
2023-02-03T07:08:55.101Z,3.200
2023-02-03T07:09:55.816Z,2.500
2023-02-03T07:10:55.649Z,2.800
2023-02-03T07:11:55.341Z,3.000
2023-02-03T07:12:55.071Z,3.200
2023-02-03T07:13:55.754Z,2.400
2023-02-03T07:14:55.564Z,2.700
2023-02-03T07:16:55.544Z,3.200
2023-02-03T07:17:55.261Z,2.800
2023-02-03T07:19:04.559Z,3.400
2023-02-03T07:19:55.308Z,3.000
2023-02-03T07:20:55.062Z,3.000
2023-02-03T07:21:55.720Z,3.400
2023-02-03T07:22:55.439Z,3.300
2023-02-03T07:23:55.100Z,3.100
2023-02-03T07:24:55.829Z,3.200
2023-02-03T07:25:55.722Z,2.900
2023-02-03T07:26:55.441Z,3.200
2023-02-03T07:27:55.211Z,3.100
2023-02-03T07:28:54.867Z,3.000
2023-02-03T07:29:55.596Z,3.800
2023-02-03T07:30:55.345Z,3.100
2023-02-03T07:31:55.496Z,3.100
2023-02-03T07:32:55.718Z,3.400
2023-02-03T07:33:55.537Z,3.200
2023-02-03T07:34:55.206Z,2.800
2023-02-03T07:35:54.919Z,3.100
2023-02-03T07:36:56.107Z,3.000
2023-02-03T07:37:55.836Z,2.900
2023-02-03T07:38:55.548Z,3.000
2023-02-03T07:39:55.271Z,3.700
2023-02-03T07:40:55.120Z,3.600
2023-02-03T07:41:55.927Z,3.500
2023-02-03T07:42:55.803Z,3.000
2023-02-03T07:43:55.733Z,3.600
2023-02-03T07:44:55.603Z,3.500
2023-02-03T07:45:55.271Z,3.500
2023-02-03T07:46:55.133Z,3.100
2023-02-03T07:47:55.040Z,3.800
2023-02-03T07:48:55.812Z,3.900
2023-02-03T07:49:55.722Z,3.500
2023-02-03T07:50:55.694Z,3.600
2023-02-03T07:51:55.440Z,3.300
2023-02-03T07:52:55.920Z,3.700
2023-02-03T07:53:55.694Z,3.900
2023-02-03T07:54:55.518Z,3.500
2023-02-03T07:55:55.191Z,3.800
2023-02-03T07:56:55.831Z,4.200
2023-02-03T07:57:55.568Z,3.500
2023-02-03T07:58:55.242Z,3.400
2023-02-03T07:59:54.942Z,4.000
2023-02-03T08:00:55.935Z,3.400
2023-02-03T08:01:56.035Z,3.800
2023-02-03T08:02:55.268Z,3.700
2023-02-03T08:03:55.372Z,3.900
2023-02-03T08:04:55.362Z,3.200
2023-02-03T08:05:55.196Z,3.500
2023-02-03T08:06:54.974Z,3.700
2023-02-03T08:07:55.708Z,3.600
2023-02-03T08:08:55.405Z,3.600
2023-02-03T08:09:55.155Z,4.000
2023-02-03T08:10:55.789Z,4.100
2023-02-03T08:11:55.720Z,3.700
2023-02-03T08:12:55.482Z,3.700
2023-02-03T08:13:55.160Z,3.700
2023-02-03T08:14:54.911Z,3.800
2023-02-03T08:15:55.759Z,3.500
2023-02-03T08:16:55.588Z,3.600
2023-02-03T08:17:55.436Z,3.500
2023-02-03T08:18:55.396Z,4.100
2023-02-03T08:19:55.111Z,3.500
2023-02-03T08:20:55.820Z,3.600
2023-02-03T08:21:55.567Z,3.700
2023-02-03T08:22:55.222Z,3.900
2023-02-03T08:23:55.103Z,3.900
2023-02-03T08:24:54.862Z,3.600
2023-02-03T08:25:56.735Z,3.700
2023-02-03T08:26:55.359Z,3.500
2023-02-03T08:27:55.150Z,3.800
2023-02-03T08:28:54.978Z,3.600
2023-02-03T08:29:55.689Z,3.800
2023-02-03T08:30:55.440Z,3.200
2023-02-03T08:31:55.750Z,4.000
2023-02-03T08:32:55.471Z,3.700
2023-02-03T08:33:55.273Z,3.700
2023-02-03T08:34:55.244Z,3.700
2023-02-03T08:35:55.165Z,3.700
2023-02-03T08:36:55.159Z,3.800
2023-02-03T08:37:54.913Z,3.300
2023-02-03T08:38:55.612Z,3.300
2023-02-03T08:39:55.652Z,3.600
2023-02-03T08:40:55.625Z,3.000
2023-02-03T08:41:55.380Z,3.700
2023-02-03T08:42:55.320Z,3.300
2023-02-03T08:43:55.293Z,3.800
2023-02-03T08:44:55.073Z,3.200
2023-02-03T08:45:56.118Z,3.600
2023-02-03T08:46:55.464Z,3.300
2023-02-03T08:47:55.254Z,3.200
2023-02-03T08:48:54.979Z,3.700
2023-02-03T08:49:55.805Z,3.800
2023-02-03T08:50:55.463Z,3.500
2023-02-03T08:51:55.701Z,3.500
2023-02-03T08:52:55.411Z,3.600
2023-02-03T08:53:55.154Z,3.600
2023-02-03T08:54:54.953Z,4.100
2023-02-03T08:55:56.796Z,4.200
2023-02-03T08:56:55.676Z,4.000
2023-02-03T08:57:55.315Z,4.100
2023-02-03T08:58:55.929Z,3.600
2023-02-03T08:59:55.839Z,4.200
2023-02-03T09:00:55.670Z,4.300
2023-02-03T09:01:55.654Z,4.300
2023-02-03T09:02:55.366Z,4.700
2023-02-03T09:03:55.164Z,4.200
2023-02-03T09:04:55.926Z,4.500
2023-02-03T09:05:55.823Z,4.200
2023-02-03T09:06:57.921Z,4.400
2023-02-03T09:07:55.569Z,4.200
2023-02-03T09:08:55.284Z,4.600
2023-02-03T09:09:55.435Z,4.800
2023-02-03T09:10:55.777Z,4.600
2023-02-03T09:11:57.015Z,4.500
2023-02-03T09:12:55.785Z,4.900
2023-02-03T09:13:55.851Z,4.200
2023-02-03T09:14:55.741Z,5.200
2023-02-03T09:15:55.523Z,5.100
2023-02-03T09:16:55.718Z,4.500
2023-02-03T09:17:55.789Z,4.900
2023-02-03T09:18:55.636Z,5.000
2023-02-03T09:19:55.632Z,5.100
2023-02-03T09:20:56.119Z,4.700
2023-02-03T09:22:03.511Z,5.000
2023-02-03T09:22:56.007Z,5.100
2023-02-03T09:23:55.674Z,4.600
2023-02-03T09:24:55.427Z,4.600
2023-02-03T09:25:55.875Z,4.700
2023-02-03T09:26:55.696Z,4.700
2023-02-03T09:27:55.649Z,3.900
2023-02-03T09:28:55.392Z,4.400
2023-02-03T09:29:55.309Z,4.600
2023-02-03T09:30:55.211Z,4.800
2023-02-03T09:31:55.184Z,3.900
2023-02-03T09:32:54.920Z,4.200
2023-02-03T09:33:55.941Z,4.000
2023-02-03T09:34:55.728Z,4.500
2023-02-03T09:35:55.596Z,4.200
2023-02-03T09:36:57.720Z,4.300
2023-02-03T09:37:55.697Z,4.200
2023-02-03T09:38:55.440Z,4.300
2023-02-03T09:39:55.314Z,3.800
2023-02-03T09:41:06.167Z,3.900
2023-02-03T09:42:58.141Z,4.500
2023-02-03T09:43:57.909Z,4.400
2023-02-03T09:44:58.983Z,4.200
2023-02-03T09:45:58.950Z,4.000
2023-02-03T09:46:58.942Z,4.700
2023-02-03T09:47:58.684Z,4.200
2023-02-03T09:48:58.361Z,4.200
2023-02-03T09:49:58.332Z,3.900
2023-02-03T09:50:58.211Z,4.000
2023-02-03T09:51:57.987Z,5.000
2023-02-03T09:52:58.705Z,4.400
2023-02-03T09:53:58.432Z,4.500
2023-02-03T09:54:58.232Z,4.100
2023-02-03T09:55:57.972Z,4.200
2023-02-03T09:57:04.415Z,4.000
2023-02-03T09:57:58.360Z,4.200
2023-02-03T09:58:58.075Z,4.100
2023-02-03T09:59:58.733Z,4.200
2023-02-03T10:00:58.763Z,4.200
2023-02-03T10:01:59.848Z,4.100
2023-02-03T10:02:58.807Z,4.600
2023-02-03T10:03:58.777Z,4.200
2023-02-03T10:04:58.515Z,4.000
2023-02-03T10:06:58.908Z,3.800
2023-02-03T10:07:58.741Z,4.000
2023-02-03T10:08:58.618Z,4.000
2023-02-03T10:09:58.423Z,3.500
2023-02-03T10:10:58.108Z,4.300
2023-02-03T10:11:58.004Z,3.800
2023-02-03T10:12:58.730Z,3.600
2023-02-03T10:13:58.446Z,3.600
2023-02-03T10:14:58.131Z,4.300
2023-02-03T10:15:58.052Z,3.700
2023-02-03T10:16:59.035Z,3.700
2023-02-03T10:17:58.216Z,3.400
2023-02-03T10:18:58.050Z,3.700
2023-02-03T10:19:58.936Z,3.800
2023-02-03T10:20:58.799Z,3.600
2023-02-03T10:21:58.668Z,3.900
2023-02-03T10:22:58.531Z,3.100
2023-02-03T10:23:58.315Z,4.100
2023-02-03T10:24:58.275Z,3.600
2023-02-03T10:25:58.336Z,4.000
2023-02-03T10:26:58.219Z,3.400
2023-02-03T10:27:58.194Z,3.600
2023-02-03T10:28:57.955Z,3.700
2023-02-03T10:29:58.785Z,3.400
2023-02-03T10:30:59.008Z,3.200
2023-02-03T10:31:58.839Z,3.800
2023-02-03T10:32:58.155Z,3.400
2023-02-03T10:33:58.806Z,3.500
2023-02-03T10:34:59.116Z,3.400
2023-02-03T10:35:58.215Z,3.400
2023-02-03T10:36:59.680Z,3.200
2023-02-03T10:37:58.472Z,3.300
2023-02-03T10:38:58.468Z,3.700
2023-02-03T10:39:58.526Z,3.500
2023-02-03T10:40:58.421Z,3.500
2023-02-03T10:41:58.321Z,3.100
2023-02-03T10:42:58.478Z,3.200
2023-02-03T10:43:59.050Z,3.500
2023-02-03T10:44:58.963Z,3.500
2023-02-03T10:45:59.213Z,3.600
2023-02-03T10:46:58.515Z,3.500
2023-02-03T10:47:58.390Z,3.100
2023-02-03T10:48:58.090Z,3.100
2023-02-03T10:49:59.807Z,3.000
2023-02-03T10:50:58.702Z,2.900
2023-02-03T10:51:58.393Z,3.600
2023-02-03T10:52:57.987Z,3.300
2023-02-03T10:53:58.825Z,2.900
2023-02-03T10:54:58.486Z,3.300
2023-02-03T10:55:58.444Z,2.800
2023-02-03T10:56:58.364Z,3.500
2023-02-03T10:57:58.173Z,3.800
2023-02-03T10:58:57.849Z,2.900
2023-02-03T10:59:58.784Z,3.300
2023-02-03T11:00:58.821Z,3.300
2023-02-03T11:01:59.143Z,3.200
2023-02-03T11:02:58.134Z,3.500
2023-02-03T11:03:58.223Z,3.200
2023-02-03T11:04:57.856Z,3.100
2023-02-03T11:05:59.740Z,3.700
2023-02-03T11:06:59.134Z,3.400
2023-02-03T11:07:59.478Z,3.200
2023-02-03T11:09:06.086Z,3.200
2023-02-03T11:09:59.595Z,3.400
2023-02-03T11:10:58.904Z,3.600
2023-02-03T11:11:59.629Z,3.300
2023-02-03T11:12:58.892Z,3.000
2023-02-03T11:13:59.551Z,2.900
2023-02-03T11:14:59.215Z,3.300
2023-02-03T11:15:59.057Z,2.900
2023-02-03T11:17:00.611Z,2.900
2023-02-03T11:17:59.004Z,3.300
2023-02-03T11:18:59.300Z,3.200
2023-02-03T11:19:58.515Z,2.800
2023-02-03T11:20:58.123Z,3.000
2023-02-03T11:21:58.285Z,3.000
2023-02-03T11:22:59.535Z,3.200
2023-02-03T11:23:58.378Z,2.700
2023-02-03T11:24:58.059Z,3.400
2023-02-03T11:25:58.732Z,3.500
2023-02-03T11:27:58.434Z,3.400
2023-02-03T11:28:58.413Z,3.300
2023-02-03T11:29:58.436Z,2.900
2023-02-03T11:30:58.474Z,3.600
2023-02-03T11:32:58.769Z,3.300
2023-02-03T11:33:58.477Z,2.900
2023-02-03T11:34:58.287Z,3.200
2023-02-03T11:35:58.392Z,3.400
2023-02-03T11:36:58.131Z,3.500
2023-02-03T11:37:58.792Z,3.300
2023-02-03T11:38:58.585Z,3.700
2023-02-03T11:39:58.373Z,3.300
2023-02-03T11:40:58.086Z,3.000
2023-02-03T11:41:58.846Z,3.500
2023-02-03T11:42:58.515Z,3.400
2023-02-03T11:43:58.112Z,3.300
2023-02-03T11:44:57.960Z,3.600
2023-02-03T11:45:58.689Z,4.000
2023-02-03T11:46:59.094Z,3.300
2023-02-03T11:47:58.168Z,3.300
2023-02-03T11:48:59.102Z,3.900
2023-02-03T11:49:58.922Z,3.200
2023-02-03T11:50:58.722Z,3.700
2023-02-03T11:51:58.427Z,3.300
2023-02-03T11:52:58.184Z,3.600
2023-02-03T11:54:03.065Z,3.300
2023-02-03T11:54:58.927Z,3.700
2023-02-03T11:55:58.678Z,3.400
2023-02-03T11:56:58.439Z,3.700
2023-02-03T11:57:58.133Z,3.300
2023-02-03T11:58:58.989Z,3.400
2023-02-03T11:59:58.819Z,3.100
2023-02-03T12:00:58.703Z,3.300
2023-02-03T12:01:58.697Z,3.200
2023-02-03T12:02:58.845Z,3.200
2023-02-03T12:03:58.689Z,2.900
2023-02-03T12:05:00.812Z,3.000
2023-02-03T12:05:58.694Z,3.600
2023-02-03T12:06:58.664Z,3.300
2023-02-03T12:07:58.372Z,3.000
2023-02-03T12:08:58.272Z,3.400
2023-02-03T12:09:58.576Z,2.900
2023-02-03T12:10:58.383Z,2.400
2023-02-03T12:11:58.092Z,3.100
2023-02-03T12:12:58.756Z,3.100
2023-02-03T12:13:58.783Z,3.100
2023-02-03T12:14:58.678Z,2.700
2023-02-03T12:15:58.774Z,3.200
2023-02-03T12:16:58.603Z,2.700
2023-02-03T12:17:58.477Z,2.600
2023-02-03T12:18:58.491Z,2.700
2023-02-03T12:19:58.520Z,2.700
2023-02-03T12:20:58.301Z,2.600
2023-02-03T12:21:58.092Z,3.000
2023-02-03T12:22:58.871Z,3.100
2023-02-03T12:23:58.699Z,2.800
2023-02-03T12:24:58.724Z,3.100
2023-02-03T12:25:58.428Z,3.000
2023-02-03T12:26:58.129Z,3.300
2023-02-03T12:28:01.689Z,2.900
2023-02-03T12:29:03.583Z,3.400
2023-02-03T12:29:58.224Z,3.100
2023-02-03T12:30:58.127Z,3.200
2023-02-03T12:31:58.049Z,2.700
2023-02-03T12:32:58.768Z,3.300
2023-02-03T12:33:58.537Z,3.000
2023-02-03T12:34:58.361Z,2.900
2023-02-03T12:35:58.067Z,3.000
2023-02-03T12:36:58.966Z,3.300
2023-02-03T12:37:58.773Z,2.900
2023-02-03T12:38:58.651Z,2.700
2023-02-03T12:39:58.327Z,2.700
2023-02-03T12:40:58.459Z,2.500
2023-02-03T12:41:58.602Z,2.400
2023-02-03T12:42:58.474Z,2.500
2023-02-03T12:43:58.233Z,2.700
2023-02-03T12:44:59.075Z,2.600
2023-02-03T12:45:59.053Z,2.800
2023-02-03T12:46:58.013Z,2.700
2023-02-03T12:47:58.643Z,2.500
2023-02-03T12:48:58.418Z,2.800
2023-02-03T12:49:58.027Z,2.500
2023-02-03T12:50:58.696Z,2.200
2023-02-03T12:51:58.664Z,2.500
2023-02-03T12:52:58.392Z,2.400
2023-02-03T12:53:58.117Z,2.200
2023-02-03T12:54:58.889Z,2.200
2023-02-03T12:55:58.704Z,2.600
2023-02-03T12:56:58.531Z,2.300
2023-02-03T12:57:58.331Z,2.500
2023-02-03T12:58:58.297Z,2.300
2023-02-03T12:59:57.993Z,2.300
2023-02-03T13:00:58.970Z,2.300